createdAt,value
2023-03-27T00:00:26.079Z,985.46
2023-03-27T00:01:26.089Z,985.47
2023-03-27T00:02:26.146Z,985.45
2023-03-27T00:03:26.143Z,985.50
2023-03-27T00:04:26.046Z,985.52
2023-03-27T00:05:26.041Z,985.49
2023-03-27T00:06:26.046Z,985.61
2023-03-27T00:07:26.025Z,985.63
2023-03-27T00:08:26.021Z,985.63
2023-03-27T00:09:28.446Z,985.67
2023-03-27T00:10:25.999Z,985.72
2023-03-27T00:11:25.994Z,985.70
2023-03-27T00:12:26.000Z,985.69
2023-03-27T00:13:25.994Z,985.70
2023-03-27T00:14:26.001Z,985.68
2023-03-27T00:15:25.970Z,985.74
2023-03-27T00:16:25.963Z,985.72
2023-03-27T00:17:25.961Z,985.71
2023-03-27T00:18:25.971Z,985.77
2023-03-27T00:19:25.957Z,985.83
2023-03-27T00:20:25.939Z,985.80
2023-03-27T00:21:25.992Z,985.85
2023-03-27T00:22:25.937Z,985.88
2023-03-27T00:23:25.925Z,985.86
2023-03-27T00:24:25.914Z,985.96
2023-03-27T00:25:25.915Z,985.86
2023-03-27T00:26:25.913Z,985.93
2023-03-27T00:27:25.908Z,985.95
2023-03-27T00:28:25.887Z,985.94
2023-03-27T00:29:25.911Z,985.90
2023-03-27T00:30:25.882Z,986.00
2023-03-27T00:31:25.893Z,986.03
2023-03-27T00:32:25.894Z,986.02
2023-03-27T00:33:25.856Z,986.04
2023-03-27T00:34:25.865Z,986.09
2023-03-27T00:35:25.890Z,986.05
2023-03-27T00:36:25.836Z,986.15
2023-03-27T00:37:25.826Z,986.16
2023-03-27T00:38:25.834Z,986.18
2023-03-27T00:39:25.833Z,986.17
2023-03-27T00:40:25.811Z,986.18
2023-03-27T00:41:25.840Z,986.23
2023-03-27T00:42:25.810Z,986.25
2023-03-27T00:43:25.788Z,986.28
2023-03-27T00:44:25.805Z,986.30
2023-03-27T00:45:25.790Z,986.28
2023-03-27T00:46:25.825Z,986.30
2023-03-27T00:47:25.780Z,986.33
2023-03-27T00:48:25.756Z,986.37
2023-03-27T00:49:25.757Z,986.40
2023-03-27T00:50:25.757Z,986.35
2023-03-27T00:51:25.736Z,986.36
2023-03-27T00:52:25.729Z,986.41
2023-03-27T00:53:25.754Z,986.40
2023-03-27T00:54:25.728Z,986.42
2023-03-27T00:55:25.719Z,986.38
2023-03-27T00:56:25.693Z,986.50
2023-03-27T00:57:25.705Z,986.47
2023-03-27T00:58:25.691Z,986.45
2023-03-27T00:59:25.685Z,986.49
2023-03-27T01:00:25.701Z,986.52
2023-03-27T01:01:25.728Z,986.52
2023-03-27T01:02:25.745Z,986.55
2023-03-27T01:03:25.718Z,986.52
2023-03-27T01:04:25.657Z,986.61
2023-03-27T01:05:25.673Z,986.64
2023-03-27T01:06:25.642Z,986.64
2023-03-27T01:07:25.636Z,986.60
2023-03-27T01:08:25.627Z,986.62
2023-03-27T01:09:25.609Z,986.65
2023-03-27T01:10:25.630Z,986.66
2023-03-27T01:11:25.605Z,986.63
2023-03-27T01:12:25.613Z,986.61
2023-03-27T01:13:25.587Z,986.59
2023-03-27T01:14:25.581Z,986.65
2023-03-27T01:15:25.576Z,986.57
2023-03-27T01:16:25.595Z,986.64
2023-03-27T01:17:25.621Z,986.67
2023-03-27T01:18:25.564Z,986.68
2023-03-27T01:19:25.549Z,986.62
2023-03-27T01:20:25.545Z,986.66
2023-03-27T01:21:25.577Z,986.73
2023-03-27T01:22:25.545Z,986.67
2023-03-27T01:23:58.935Z,986.67
2023-03-27T01:24:26.516Z,986.77
2023-03-27T01:25:25.508Z,986.78
2023-03-27T01:26:36.132Z,986.75
2023-03-27T01:27:26.507Z,986.79
2023-03-27T01:28:25.501Z,986.80
2023-03-27T01:29:25.480Z,986.86
2023-03-27T01:30:25.482Z,986.87
2023-03-27T01:31:25.566Z,986.89
2023-03-27T01:32:25.489Z,986.81
2023-03-27T01:33:25.460Z,986.93
2023-03-27T01:34:25.451Z,986.88
2023-03-27T01:35:25.512Z,986.89
2023-03-27T01:36:25.453Z,986.94
2023-03-27T01:37:25.451Z,986.99
2023-03-27T01:38:25.434Z,986.98
2023-03-27T01:39:25.413Z,987.00
2023-03-27T01:40:25.419Z,987.02
2023-03-27T01:41:25.403Z,987.02
2023-03-27T01:42:25.415Z,987.03
2023-03-27T01:43:25.394Z,987.11
2023-03-27T01:44:25.384Z,987.09
2023-03-27T01:45:26.389Z,987.17
2023-03-27T01:46:25.432Z,987.22
2023-03-27T01:47:25.374Z,987.20
2023-03-27T01:48:25.367Z,987.29
2023-03-27T01:49:25.354Z,987.23
2023-03-27T01:50:25.366Z,987.23
2023-03-27T01:51:25.341Z,987.31
2023-03-27T01:52:25.337Z,987.31
2023-03-27T01:53:25.342Z,987.34
2023-03-27T01:54:25.322Z,987.33
2023-03-27T01:55:25.349Z,987.34
2023-03-27T01:56:25.309Z,987.34
2023-03-27T01:57:25.299Z,987.34
2023-03-27T01:58:25.301Z,987.37
2023-03-27T01:59:25.290Z,987.41
2023-03-27T02:00:25.447Z,987.37
2023-03-27T02:01:25.380Z,987.41
2023-03-27T02:02:25.268Z,987.40
2023-03-27T02:03:25.265Z,987.42
2023-03-27T02:04:25.266Z,987.49
2023-03-27T02:05:25.242Z,987.45
2023-03-27T02:06:25.271Z,987.51
2023-03-27T02:07:25.240Z,987.50
2023-03-27T02:08:25.235Z,987.50
2023-03-27T02:09:25.209Z,987.50
2023-03-27T02:10:26.218Z,987.50
2023-03-27T02:11:25.464Z,987.59
2023-03-27T02:12:25.221Z,987.57
2023-03-27T02:13:25.197Z,987.55
2023-03-27T02:14:25.191Z,987.59
2023-03-27T02:15:25.612Z,987.62
2023-03-27T02:16:25.243Z,987.60
2023-03-27T02:17:25.209Z,987.66
2023-03-27T02:18:25.173Z,987.70
2023-03-27T02:19:25.162Z,987.66
2023-03-27T02:20:25.155Z,987.76
2023-03-27T02:21:25.173Z,987.74
2023-03-27T02:22:38.162Z,987.75
2023-03-27T02:23:26.140Z,987.82
2023-03-27T02:24:25.131Z,987.78
2023-03-27T02:25:25.132Z,987.85
2023-03-27T02:26:25.119Z,987.81
2023-03-27T02:27:25.150Z,987.86
2023-03-27T02:28:25.118Z,987.89
2023-03-27T02:29:25.100Z,987.93
2023-03-27T02:30:25.091Z,987.91
2023-03-27T02:31:33.604Z,987.99
2023-03-27T02:32:26.121Z,988.04
2023-03-27T02:34:25.061Z,988.12
2023-03-27T02:35:25.073Z,988.11
2023-03-27T02:36:25.055Z,988.11
2023-03-27T02:37:25.046Z,988.15
2023-03-27T02:38:26.070Z,988.20
2023-03-27T02:39:25.030Z,988.17
2023-03-27T02:40:25.020Z,988.09
2023-03-27T02:41:25.025Z,988.12
2023-03-27T02:42:25.011Z,988.19
2023-03-27T02:43:25.007Z,988.18
2023-03-27T02:44:24.996Z,988.18
2023-03-27T02:45:25.029Z,988.25
2023-03-27T02:46:25.066Z,988.19
2023-03-27T02:47:25.026Z,988.29
2023-03-27T02:48:24.998Z,988.32
2023-03-27T02:49:24.961Z,988.31
2023-03-27T02:50:24.960Z,988.35
2023-03-27T02:51:24.979Z,988.41
2023-03-27T02:52:24.958Z,988.36
2023-03-27T02:53:24.941Z,988.41
2023-03-27T02:54:24.922Z,988.42
2023-03-27T02:55:25.923Z,988.48
2023-03-27T02:56:24.954Z,988.50
2023-03-27T02:57:25.344Z,988.45
2023-03-27T02:58:25.911Z,988.50
2023-03-27T02:59:24.891Z,988.57
2023-03-27T03:00:24.901Z,988.54
2023-03-27T03:01:24.919Z,988.55
2023-03-27T03:02:24.986Z,988.59
2023-03-27T03:03:24.904Z,988.61
2023-03-27T03:04:24.870Z,988.59
2023-03-27T03:05:24.858Z,988.62
2023-03-27T03:06:24.860Z,988.65
2023-03-27T03:07:24.868Z,988.60
2023-03-27T03:08:24.861Z,988.63
2023-03-27T03:09:24.845Z,988.69
2023-03-27T03:10:24.967Z,988.71
2023-03-27T03:11:24.827Z,988.72
2023-03-27T03:12:24.824Z,988.72
2023-03-27T03:13:24.799Z,988.73
2023-03-27T03:14:24.832Z,988.84
2023-03-27T03:15:24.839Z,988.89
2023-03-27T03:16:24.830Z,988.89
2023-03-27T03:17:24.819Z,988.88
2023-03-27T03:18:25.804Z,988.91
2023-03-27T03:19:24.816Z,988.96
2023-03-27T03:20:24.771Z,988.98
2023-03-27T03:21:24.764Z,988.99
2023-03-27T03:22:24.750Z,989.02
2023-03-27T03:23:24.758Z,989.06
2023-03-27T03:24:24.724Z,989.15
2023-03-27T03:25:24.723Z,989.15
2023-03-27T03:26:24.714Z,989.14
2023-03-27T03:27:24.715Z,989.17
2023-03-27T03:28:24.734Z,989.20
2023-03-27T03:29:24.710Z,989.24
2023-03-27T03:30:24.717Z,989.23
2023-03-27T03:31:24.738Z,989.29
2023-03-27T03:32:24.709Z,989.29
2023-03-27T03:33:24.690Z,989.28
2023-03-27T03:34:24.673Z,989.30
2023-03-27T03:35:24.740Z,989.32
2023-03-27T03:36:24.662Z,989.32
2023-03-27T03:37:24.649Z,989.34
2023-03-27T03:38:24.637Z,989.38
2023-03-27T03:39:24.625Z,989.40
2023-03-27T03:40:24.636Z,989.37
2023-03-27T03:41:24.651Z,989.40
2023-03-27T03:42:24.610Z,989.46
2023-03-27T03:43:24.622Z,989.49
2023-03-27T03:44:24.605Z,989.51
2023-03-27T03:45:24.617Z,989.62
2023-03-27T03:46:24.627Z,989.55
2023-03-27T03:47:24.621Z,989.62
2023-03-27T03:48:24.586Z,989.56
2023-03-27T03:49:24.569Z,989.63
2023-03-27T03:50:24.606Z,989.70
2023-03-27T03:51:24.572Z,989.67
2023-03-27T03:52:24.562Z,989.67
2023-03-27T03:53:24.549Z,989.66
2023-03-27T03:54:24.543Z,989.68
2023-03-27T03:55:24.536Z,989.78
2023-03-27T03:56:24.549Z,989.79
2023-03-27T03:57:24.518Z,989.79
2023-03-27T03:58:34.676Z,989.76
2023-03-27T03:59:25.509Z,989.81
2023-03-27T04:00:24.505Z,989.86
2023-03-27T04:01:24.512Z,989.86
2023-03-27T04:02:24.537Z,989.97
2023-03-27T04:03:24.587Z,989.97
2023-03-27T04:04:24.471Z,989.88
2023-03-27T04:05:24.462Z,989.98
2023-03-27T04:06:24.469Z,989.95
2023-03-27T04:07:24.463Z,989.95
2023-03-27T04:08:24.479Z,990.03
2023-03-27T04:09:24.436Z,990.06
2023-03-27T04:10:24.434Z,990.06
2023-03-27T04:11:25.432Z,990.08
2023-03-27T04:12:24.449Z,990.16
2023-03-27T04:13:24.411Z,990.16
2023-03-27T04:14:24.427Z,990.11
2023-03-27T04:15:24.410Z,990.13
2023-03-27T04:16:24.453Z,990.21
2023-03-27T04:17:24.469Z,990.25
2023-03-27T04:18:24.508Z,990.19
2023-03-27T04:19:24.826Z,990.21
2023-03-27T04:20:24.388Z,990.28
2023-03-27T04:21:24.355Z,990.26
2023-03-27T04:22:24.355Z,990.27
2023-03-27T04:23:24.355Z,990.16
2023-03-27T04:24:24.338Z,990.26
2023-03-27T04:25:24.456Z,990.35
2023-03-27T04:26:24.355Z,990.33
2023-03-27T04:27:24.316Z,990.31
2023-03-27T04:28:24.319Z,990.34
2023-03-27T04:29:24.308Z,990.29
2023-03-27T04:30:24.337Z,990.29
2023-03-27T04:31:24.335Z,990.34
2023-03-27T04:32:24.378Z,990.36
2023-03-27T04:33:24.283Z,990.37
2023-03-27T04:34:24.281Z,990.34
2023-03-27T04:35:24.294Z,990.37
2023-03-27T04:36:24.298Z,990.39
2023-03-27T04:37:24.338Z,990.35
2023-03-27T04:38:24.260Z,990.38
2023-03-27T04:39:24.254Z,990.43
2023-03-27T04:40:25.251Z,990.47
2023-03-27T04:41:24.275Z,990.45
2023-03-27T04:42:24.235Z,990.48
2023-03-27T04:43:24.222Z,990.45
2023-03-27T04:44:24.220Z,990.48
2023-03-27T04:45:24.229Z,990.48
2023-03-27T04:46:24.292Z,990.47
2023-03-27T04:47:24.252Z,990.50
2023-03-27T04:48:24.199Z,990.50
2023-03-27T04:49:24.190Z,990.50
2023-03-27T04:50:24.184Z,990.54
2023-03-27T04:51:24.230Z,990.56
2023-03-27T04:52:24.174Z,990.60
2023-03-27T04:53:24.175Z,990.62
2023-03-27T04:54:24.166Z,990.65
2023-03-27T04:55:24.193Z,990.68
2023-03-27T04:56:24.148Z,990.62
2023-03-27T04:57:24.156Z,990.72
2023-03-27T04:58:24.135Z,990.73
2023-03-27T04:59:24.128Z,990.74
2023-03-27T05:00:24.124Z,990.74
2023-03-27T05:01:24.134Z,990.80
2023-03-27T05:02:24.156Z,990.84
2023-03-27T05:03:24.214Z,990.84
2023-03-27T05:04:24.096Z,990.89
2023-03-27T05:05:24.094Z,990.90
2023-03-27T05:06:24.078Z,990.85
2023-03-27T05:07:24.084Z,990.88
2023-03-27T05:08:24.083Z,990.98
2023-03-27T05:09:24.071Z,990.99
2023-03-27T05:10:24.053Z,990.97
2023-03-27T05:11:24.048Z,990.91
2023-03-27T05:12:24.062Z,990.97
2023-03-27T05:13:24.028Z,990.95
2023-03-27T05:14:24.030Z,991.05
2023-03-27T05:15:24.023Z,991.06
2023-03-27T05:16:24.056Z,991.05
2023-03-27T05:17:24.083Z,991.03
2023-03-27T05:18:24.000Z,991.12
2023-03-27T05:19:25.531Z,991.15
2023-03-27T05:20:23.992Z,991.11
2023-03-27T05:21:23.977Z,991.16
2023-03-27T05:22:24.230Z,991.15
2023-03-27T05:23:24.238Z,991.18
2023-03-27T05:24:23.968Z,991.18
2023-03-27T05:25:23.962Z,991.17
2023-03-27T05:26:23.961Z,991.20
2023-03-27T05:27:23.949Z,991.26
2023-03-27T05:28:23.943Z,991.27
2023-03-27T05:29:24.017Z,991.29
2023-03-27T05:30:23.966Z,991.30
2023-03-27T05:31:23.981Z,991.41
2023-03-27T05:32:23.956Z,991.36
2023-03-27T05:33:23.895Z,991.32
2023-03-27T05:34:23.955Z,991.34
2023-03-27T05:35:24.029Z,991.32
2023-03-27T05:36:23.877Z,991.34
2023-03-27T05:37:24.939Z,991.40
2023-03-27T05:38:23.869Z,991.42
2023-03-27T05:39:24.115Z,991.47
2023-03-27T05:40:23.859Z,991.46
2023-03-27T05:41:23.852Z,991.48
2023-03-27T05:42:23.849Z,991.52
2023-03-27T05:43:23.850Z,991.53
2023-03-27T05:44:23.822Z,991.52
2023-03-27T05:45:23.857Z,991.54
2023-03-27T05:46:23.876Z,991.55
2023-03-27T05:47:23.862Z,991.56
2023-03-27T05:48:23.816Z,991.65
2023-03-27T05:49:23.805Z,991.63
2023-03-27T05:50:23.789Z,991.66
2023-03-27T05:51:23.787Z,991.73
2023-03-27T05:52:28.287Z,991.69
2023-03-27T05:53:27.968Z,991.71
2023-03-27T05:54:23.798Z,991.74
2023-03-27T05:55:24.591Z,991.73
2023-03-27T05:56:23.759Z,991.79
2023-03-27T05:57:23.739Z,991.79
2023-03-27T05:58:23.743Z,991.75
2023-03-27T05:59:23.790Z,991.80
2023-03-27T06:00:23.723Z,991.86
2023-03-27T06:01:23.718Z,991.85
2023-03-27T06:02:23.810Z,991.86
2023-03-27T06:03:23.896Z,991.84
2023-03-27T06:04:23.739Z,991.92
2023-03-27T06:05:23.696Z,991.89
2023-03-27T06:06:23.695Z,991.92
2023-03-27T06:07:23.694Z,991.93
2023-03-27T06:08:23.676Z,991.89
2023-03-27T06:09:23.680Z,991.91
2023-03-27T06:10:23.667Z,991.92
2023-03-27T06:11:23.659Z,991.97
2023-03-27T06:12:23.660Z,991.92
2023-03-27T06:13:23.668Z,991.95
2023-03-27T06:14:23.643Z,992.06
2023-03-27T06:15:23.631Z,992.03
2023-03-27T06:16:23.682Z,992.06
2023-03-27T06:17:23.735Z,992.13
2023-03-27T06:18:23.644Z,992.05
2023-03-27T06:19:23.996Z,992.06
2023-03-27T06:20:23.607Z,992.13
2023-03-27T06:21:24.496Z,992.10
2023-03-27T06:22:23.593Z,992.14
2023-03-27T06:23:23.581Z,992.14
2023-03-27T06:24:23.587Z,992.19
2023-03-27T06:25:23.578Z,992.13
2023-03-27T06:26:23.574Z,992.19
2023-03-27T06:27:23.565Z,992.22
2023-03-27T06:28:23.542Z,992.18
2023-03-27T06:29:23.553Z,992.16
2023-03-27T06:30:23.552Z,992.13
2023-03-27T06:31:23.603Z,992.13
2023-03-27T06:32:24.128Z,992.10
2023-03-27T06:33:23.512Z,992.14
2023-03-27T06:34:23.507Z,992.14
2023-03-27T06:35:24.501Z,992.14
2023-03-27T06:36:23.531Z,992.17
2023-03-27T06:37:23.495Z,992.18
2023-03-27T06:38:23.482Z,992.18
2023-03-27T06:39:23.478Z,992.23
2023-03-27T06:40:23.479Z,992.24
2023-03-27T06:41:23.461Z,992.30
2023-03-27T06:42:23.489Z,992.31
2023-03-27T06:43:23.458Z,992.22
2023-03-27T06:44:23.443Z,992.27
2023-03-27T06:45:23.446Z,992.24
2023-03-27T06:46:27.563Z,992.26
2023-03-27T06:47:25.466Z,992.31
2023-03-27T06:48:23.479Z,992.16
2023-03-27T06:49:23.411Z,992.31
2023-03-27T06:50:23.412Z,992.26
2023-03-27T06:51:23.397Z,992.28
2023-03-27T06:52:23.423Z,992.23
2023-03-27T06:53:27.669Z,992.32
2023-03-27T06:54:25.377Z,992.41
2023-03-27T06:55:23.393Z,992.38
2023-03-27T06:56:23.391Z,992.34
2023-03-27T06:57:23.387Z,992.33
2023-03-27T06:58:23.420Z,992.35
2023-03-27T06:59:23.352Z,992.44
2023-03-27T07:00:23.356Z,992.37
2023-03-27T07:01:23.364Z,992.36
2023-03-27T07:02:23.342Z,992.37
2023-03-27T07:03:23.377Z,992.30
2023-03-27T07:04:23.323Z,992.37
2023-03-27T07:05:23.409Z,992.39
2023-03-27T07:06:23.299Z,992.31
2023-03-27T07:07:23.311Z,992.28
2023-03-27T07:08:25.179Z,992.26
2023-03-27T07:09:24.280Z,992.28
2023-03-27T07:10:23.271Z,992.28
2023-03-27T07:11:23.271Z,992.31
2023-03-27T07:12:23.253Z,992.35
2023-03-27T07:13:24.268Z,992.35
2023-03-27T07:14:23.238Z,992.35
2023-03-27T07:15:23.919Z,992.33
2023-03-27T07:16:23.291Z,992.41
2023-03-27T07:17:23.235Z,992.28
2023-03-27T07:18:23.272Z,992.23
2023-03-27T07:19:23.236Z,992.35
2023-03-27T07:20:23.210Z,992.22
2023-03-27T07:21:23.230Z,992.21
2023-03-27T07:22:23.185Z,992.25
2023-03-27T07:23:24.183Z,992.25
2023-03-27T07:24:23.180Z,992.39
2023-03-27T07:25:23.175Z,992.46
2023-03-27T07:26:23.407Z,992.42
2023-03-27T07:27:23.156Z,992.36
2023-03-27T07:28:23.143Z,992.42
2023-03-27T07:29:23.151Z,992.46
2023-03-27T07:30:23.150Z,992.44
2023-03-27T07:31:35.162Z,992.44
2023-03-27T07:32:36.329Z,992.46
2023-03-27T07:33:25.233Z,992.57
2023-03-27T07:34:23.121Z,992.57
2023-03-27T07:35:23.138Z,992.58
2023-03-27T07:36:23.105Z,992.56
2023-03-27T07:37:23.099Z,992.60
2023-03-27T07:38:23.094Z,992.67
2023-03-27T07:39:23.082Z,992.69
2023-03-27T07:40:33.047Z,992.67
2023-03-27T07:41:25.128Z,992.73
2023-03-27T07:42:23.065Z,992.77
2023-03-27T07:43:23.057Z,992.82
2023-03-27T07:44:23.041Z,992.81
2023-03-27T07:45:23.057Z,992.81
2023-03-27T07:46:23.116Z,992.85
2023-03-27T07:47:23.071Z,992.87
2023-03-27T07:48:23.028Z,992.79
2023-03-27T07:49:39.460Z,992.84
2023-03-27T07:50:24.034Z,992.68
2023-03-27T07:51:23.033Z,992.86
2023-03-27T07:52:22.997Z,992.87
2023-03-27T07:53:32.878Z,992.79
2023-03-27T07:54:23.987Z,992.77
2023-03-27T07:55:22.996Z,992.75
2023-03-27T07:56:22.965Z,992.78
2023-03-27T07:57:23.100Z,992.73
2023-03-27T07:58:23.177Z,992.89
2023-03-27T07:59:22.953Z,992.85
2023-03-27T08:00:23.039Z,992.95
2023-03-27T08:01:22.939Z,992.87
2023-03-27T08:02:22.948Z,992.90
2023-03-27T08:03:23.017Z,992.86
2023-03-27T08:04:22.983Z,992.92
2023-03-27T08:05:22.952Z,992.89
2023-03-27T08:06:22.899Z,992.87
2023-03-27T08:07:22.906Z,992.83
2023-03-27T08:08:22.910Z,992.75
2023-03-27T08:09:22.887Z,992.86
2023-03-27T08:10:22.929Z,992.82
2023-03-27T08:11:30.234Z,992.88
2023-03-27T08:12:24.856Z,992.89
2023-03-27T08:13:22.864Z,992.85
2023-03-27T08:14:22.840Z,993.09
2023-03-27T08:15:22.844Z,992.99
2023-03-27T08:16:22.966Z,992.82
2023-03-27T08:17:22.843Z,992.84
2023-03-27T08:18:22.851Z,993.02
2023-03-27T08:19:22.810Z,992.98
2023-03-27T08:20:22.853Z,992.99
2023-03-27T08:21:22.794Z,992.98
2023-03-27T08:22:22.822Z,992.79
2023-03-27T08:23:22.787Z,993.03
2023-03-27T08:24:22.782Z,992.72
2023-03-27T08:25:23.034Z,992.80
2023-03-27T08:26:22.765Z,993.06
2023-03-27T08:27:22.771Z,993.03
2023-03-27T08:28:22.767Z,992.81
2023-03-27T08:29:22.736Z,992.92
2023-03-27T08:30:22.729Z,992.89
2023-03-27T08:31:22.742Z,993.09
2023-03-27T08:32:22.736Z,992.95
2023-03-27T08:33:22.750Z,993.10
2023-03-27T08:34:22.709Z,993.10
2023-03-27T08:35:22.737Z,992.92
2023-03-27T08:36:22.710Z,992.84
2023-03-27T08:37:22.713Z,993.04
2023-03-27T08:38:26.881Z,992.97
2023-03-27T08:39:23.914Z,992.91
2023-03-27T08:40:22.685Z,992.94
2023-03-27T08:41:22.662Z,992.88
2023-03-27T08:42:22.655Z,993.09
2023-03-27T08:43:22.671Z,993.09
2023-03-27T08:44:22.635Z,993.10
2023-03-27T08:45:22.699Z,993.10
2023-03-27T08:46:22.662Z,992.95
2023-03-27T08:47:22.666Z,992.95
2023-03-27T08:48:22.619Z,992.95
2023-03-27T08:49:22.636Z,993.01
2023-03-27T08:50:22.622Z,992.98
2023-03-27T08:51:22.702Z,992.99
2023-03-27T08:52:22.586Z,992.98
2023-03-27T08:53:22.601Z,993.02
2023-03-27T08:54:22.828Z,992.99
2023-03-27T08:55:22.574Z,992.95
2023-03-27T08:56:22.564Z,993.27
2023-03-27T08:57:22.555Z,993.16
2023-03-27T08:58:22.575Z,993.20
2023-03-27T08:59:22.550Z,993.26
2023-03-27T09:00:22.572Z,993.31
2023-03-27T09:01:22.562Z,993.26
2023-03-27T09:02:22.550Z,993.26
2023-03-27T09:03:22.607Z,993.28
2023-03-27T09:04:22.535Z,992.94
2023-03-27T09:05:22.539Z,993.21
2023-03-27T09:06:22.499Z,993.10
2023-03-27T09:07:22.496Z,993.26
2023-03-27T09:08:22.499Z,993.09
2023-03-27T09:09:22.473Z,992.97
2023-03-27T09:10:22.483Z,993.00
2023-03-27T09:11:22.466Z,993.02
2023-03-27T09:12:22.456Z,993.29
2023-03-27T09:13:23.443Z,993.10
2023-03-27T09:14:22.445Z,993.06
2023-03-27T09:15:22.477Z,993.24
2023-03-27T09:16:22.479Z,993.05
2023-03-27T09:17:22.414Z,993.05
2023-03-27T09:18:22.425Z,993.15
2023-03-27T09:19:22.413Z,993.16
2023-03-27T09:20:22.416Z,993.23
2023-03-27T09:21:22.396Z,993.17
2023-03-27T09:22:22.401Z,993.26
2023-03-27T09:23:22.380Z,993.42
2023-03-27T09:24:22.391Z,993.45
2023-03-27T09:25:22.387Z,993.17
2023-03-27T09:26:22.370Z,993.49
2023-03-27T09:27:22.347Z,993.31
2023-03-27T09:28:22.344Z,993.43
2023-03-27T09:29:22.348Z,993.19
2023-03-27T09:30:22.354Z,993.16
2023-03-27T09:31:22.349Z,993.24
2023-03-27T09:32:22.329Z,993.25
2023-03-27T09:33:22.318Z,993.27
2023-03-27T09:34:22.299Z,993.16
2023-03-27T09:35:22.342Z,993.28
2023-03-27T09:36:22.299Z,993.27
2023-03-27T09:37:22.339Z,993.25
2023-03-27T09:38:22.279Z,993.30
2023-03-27T09:39:22.295Z,993.36
2023-03-27T09:40:22.269Z,993.27
2023-03-27T09:41:22.257Z,993.34
2023-03-27T09:42:22.274Z,993.34
2023-03-27T09:43:24.366Z,993.33
2023-03-27T09:44:23.233Z,993.38
2023-03-27T09:45:22.230Z,993.38
2023-03-27T09:46:22.233Z,993.36
2023-03-27T09:47:22.238Z,993.42
2023-03-27T09:48:22.208Z,993.38
2023-03-27T09:49:22.198Z,993.55
2023-03-27T09:50:22.212Z,993.51
2023-03-27T09:51:22.200Z,993.59
2023-03-27T09:52:22.175Z,993.36
2023-03-27T09:53:22.197Z,993.60
2023-03-27T09:54:22.182Z,993.59
2023-03-27T09:55:22.166Z,993.57
2023-03-27T09:56:22.163Z,993.47
2023-03-27T09:57:22.188Z,993.41
2023-03-27T09:58:22.184Z,993.38
2023-03-27T09:59:22.166Z,993.44
2023-03-27T10:00:22.138Z,993.47
2023-03-27T10:01:22.154Z,993.43
2023-03-27T10:02:22.128Z,993.43
2023-03-27T10:03:22.228Z,993.52
2023-03-27T10:04:22.123Z,993.54
2023-03-27T10:05:22.116Z,993.50
2023-03-27T10:06:22.092Z,993.55
2023-03-27T10:07:22.084Z,993.55
2023-03-27T10:08:22.074Z,993.57
2023-03-27T10:09:22.059Z,993.68
2023-03-27T10:10:22.076Z,993.53
2023-03-27T10:11:22.081Z,993.55
2023-03-27T10:12:22.060Z,993.57
2023-03-27T10:13:22.042Z,993.54
2023-03-27T10:14:22.045Z,993.58
2023-03-27T10:15:22.058Z,993.51
2023-03-27T10:16:22.043Z,993.49
2023-03-27T10:17:22.023Z,993.74
2023-03-27T10:18:22.007Z,993.61
2023-03-27T10:19:22.002Z,993.72
2023-03-27T10:20:22.049Z,993.71
2023-03-27T10:21:22.000Z,993.67
2023-03-27T10:22:21.980Z,993.60
2023-03-27T10:23:22.003Z,993.61
2023-03-27T10:24:21.972Z,993.68
2023-03-27T10:25:21.961Z,993.66
2023-03-27T10:26:21.982Z,993.69
2023-03-27T10:27:22.074Z,993.68
2023-03-27T10:28:21.939Z,993.63
2023-03-27T10:29:21.931Z,993.62
2023-03-27T10:30:21.922Z,993.52
2023-03-27T10:31:21.967Z,993.35
2023-03-27T10:32:21.913Z,993.54
2023-03-27T10:33:22.021Z,993.60
2023-03-27T10:34:21.906Z,993.70
2023-03-27T10:35:21.905Z,993.36
2023-03-27T10:36:21.934Z,993.30
2023-03-27T10:37:21.874Z,993.39
2023-03-27T10:38:21.937Z,993.30
2023-03-27T10:39:21.863Z,993.26
2023-03-27T10:40:21.879Z,993.55
2023-03-27T10:41:28.740Z,993.64
2023-03-27T10:42:22.856Z,993.62
2023-03-27T10:43:21.833Z,993.68
2023-03-27T10:44:21.827Z,993.58
2023-03-27T10:45:21.820Z,993.59
2023-03-27T10:46:21.920Z,993.68
2023-03-27T10:47:21.840Z,993.69
2023-03-27T10:48:21.806Z,993.72
2023-03-27T10:49:21.802Z,993.71
2023-03-27T10:50:21.820Z,993.57
2023-03-27T10:51:21.776Z,993.63
2023-03-27T10:52:21.807Z,993.56
2023-03-27T10:53:21.858Z,993.61
2023-03-27T10:54:21.847Z,993.75
2023-03-27T10:55:21.752Z,993.79
2023-03-27T10:56:21.747Z,993.38
2023-03-27T10:57:21.919Z,993.34
2023-03-27T10:58:21.738Z,993.36
2023-03-27T10:59:31.153Z,993.47
2023-03-27T11:00:23.716Z,993.61
2023-03-27T11:01:21.768Z,993.71
2023-03-27T11:02:21.735Z,993.65
2023-03-27T11:03:21.727Z,993.68
2023-03-27T11:04:21.756Z,993.68
2023-03-27T11:05:21.862Z,993.83
2023-03-27T11:06:21.671Z,993.72
2023-03-27T11:07:21.680Z,993.82
2023-03-27T11:08:21.675Z,993.91
2023-03-27T11:09:21.676Z,993.84
2023-03-27T11:10:21.712Z,993.57
2023-03-27T11:11:21.647Z,993.88
2023-03-27T11:12:21.643Z,993.86
2023-03-27T11:13:21.651Z,993.65
2023-03-27T11:14:21.621Z,993.78
2023-03-27T11:15:21.616Z,993.78
2023-03-27T11:16:21.679Z,993.82
2023-03-27T11:17:21.617Z,993.74
2023-03-27T11:18:21.598Z,993.54
2023-03-27T11:19:21.592Z,993.80
2023-03-27T11:20:21.591Z,993.76
2023-03-27T11:21:21.590Z,993.76
2023-03-27T11:22:21.577Z,993.45
2023-03-27T11:23:21.575Z,993.52
2023-03-27T11:24:21.563Z,993.43
2023-03-27T11:25:21.562Z,993.79
2023-03-27T11:26:21.576Z,993.69
2023-03-27T11:27:21.535Z,993.69
2023-03-27T11:28:21.533Z,993.65
2023-03-27T11:29:21.526Z,993.65
2023-03-27T11:30:21.511Z,993.51
2023-03-27T11:31:21.684Z,993.49
2023-03-27T11:32:21.560Z,993.50
2023-03-27T11:33:21.491Z,993.43
2023-03-27T11:34:28.486Z,993.44
2023-03-27T11:35:22.498Z,993.46
2023-03-27T11:36:21.474Z,993.55
2023-03-27T11:37:21.482Z,993.38
2023-03-27T11:38:21.467Z,993.57
2023-03-27T11:39:21.464Z,993.38
2023-03-27T11:40:21.468Z,993.55
2023-03-27T11:41:21.462Z,993.57
2023-03-27T11:42:21.448Z,993.68
2023-03-27T11:43:21.429Z,993.71
2023-03-27T11:44:21.434Z,993.69
2023-03-27T11:45:21.449Z,993.88
2023-03-27T11:46:21.444Z,993.85
2023-03-27T11:47:21.410Z,993.73
2023-03-27T11:48:21.415Z,993.81
2023-03-27T11:49:21.401Z,993.57
2023-03-27T11:50:21.419Z,993.61
2023-03-27T11:51:21.388Z,993.79
2023-03-27T11:52:21.386Z,993.80
2023-03-27T11:53:21.395Z,993.65
2023-03-27T11:54:21.386Z,993.86
2023-03-27T11:55:21.371Z,993.76
2023-03-27T11:56:21.361Z,993.81
2023-03-27T11:57:21.406Z,993.76
2023-03-27T11:58:21.344Z,993.71
2023-03-27T11:59:21.332Z,993.72
2023-03-27T12:00:21.331Z,993.62
2023-03-27T12:01:21.358Z,993.67
2023-03-27T12:02:21.400Z,993.64
2023-03-27T12:03:21.370Z,993.60
2023-03-27T12:04:21.351Z,993.71
2023-03-27T12:05:21.305Z,993.71
2023-03-27T12:06:21.279Z,993.84
2023-03-27T12:07:33.980Z,993.33
2023-03-27T12:08:23.278Z,993.40
2023-03-27T12:09:21.991Z,993.44
2023-03-27T12:10:27.400Z,993.58
2023-03-27T12:11:23.259Z,993.78
2023-03-27T12:12:21.261Z,993.78
2023-03-27T12:13:24.296Z,993.83
2023-03-27T12:14:23.941Z,993.88
2023-03-27T12:15:23.227Z,993.82
2023-03-27T12:16:21.272Z,993.71
2023-03-27T12:17:21.216Z,993.72
2023-03-27T12:18:23.945Z,993.72
2023-03-27T12:20:23.200Z,993.65
2023-03-27T12:21:21.182Z,993.74
2023-03-27T12:22:24.425Z,993.72
2023-03-27T12:23:22.186Z,993.71
2023-03-27T12:24:21.200Z,993.69
2023-03-27T12:25:21.164Z,993.72
2023-03-27T12:26:21.162Z,993.67
2023-03-27T12:27:21.144Z,993.64
2023-03-27T12:28:22.429Z,993.66
2023-03-27T12:29:23.143Z,993.55
2023-03-27T12:30:21.128Z,993.50